createdAt,value
2019-05-21T00:00:10.526Z,14.04
2019-05-21T00:04:31.370Z,13.90
2019-05-21T00:08:51.917Z,13.94
2019-05-21T00:13:12.698Z,14.00
2019-05-21T00:17:33.220Z,13.93
2019-05-21T00:21:53.697Z,13.58
2019-05-21T00:26:14.878Z,13.77
2019-05-21T00:31:12.064Z,13.84
2019-05-21T00:36:09.702Z,13.94
2019-05-21T00:41:06.771Z,13.64
2019-05-21T00:45:26.988Z,13.40
2019-05-21T00:49:47.185Z,13.60
2019-05-21T00:54:08.131Z,13.57
2019-05-21T00:58:28.444Z,13.59
2019-05-21T01:02:48.759Z,13.63
2019-05-21T01:07:08.958Z,13.69
2019-05-21T01:11:30.153Z,13.58
2019-05-21T01:15:50.949Z,13.38
2019-05-21T01:20:11.795Z,13.37
2019-05-21T01:24:32.474Z,13.27
2019-05-21T01:28:53.155Z,13.36
2019-05-21T01:33:13.735Z,13.24
2019-05-21T01:37:34.543Z,13.08
2019-05-21T01:41:54.920Z,13.03
2019-05-21T01:46:15.340Z,13.21
2019-05-21T01:50:36.800Z,13.14
2019-05-21T01:54:57.798Z,13.11
2019-05-21T01:59:18.295Z,13.18
2019-05-21T02:03:38.588Z,13.00
2019-05-21T02:07:59.383Z,12.93
2019-05-21T02:12:19.648Z,12.58
2019-05-21T02:16:40.147Z,12.93
2019-05-21T02:21:01.160Z,12.88
2019-05-21T02:25:21.488Z,12.89
2019-05-21T02:29:41.935Z,12.95
2019-05-21T02:34:02.585Z,12.92
2019-05-21T02:38:23.248Z,12.93
2019-05-21T02:42:43.842Z,13.17
2019-05-21T02:47:04.398Z,12.99
2019-05-21T02:51:25.519Z,12.76
2019-05-21T02:55:45.574Z,12.80
2019-05-21T03:00:08.428Z,13.00
2019-05-21T03:04:29.476Z,12.82
2019-05-21T03:08:49.657Z,12.95
2019-05-21T03:13:10.975Z,12.80
2019-05-21T03:17:31.561Z,12.94
2019-05-21T03:21:52.909Z,12.82
2019-05-21T03:26:13.760Z,12.77
2019-05-21T03:30:34.403Z,12.84
2019-05-21T03:34:55.449Z,12.78
2019-05-21T03:39:19.268Z,13.02
2019-05-21T03:43:38.757Z,13.10
2019-05-21T03:47:59.370Z,13.04
2019-05-21T03:52:19.922Z,13.08
2019-05-21T03:56:40.280Z,13.00
2019-05-21T04:01:00.493Z,12.87
2019-05-21T04:05:24.412Z,12.90
2019-05-21T04:09:45.095Z,12.87
2019-05-21T04:14:05.202Z,12.92
2019-05-21T04:18:25.854Z,12.92
2019-05-21T04:22:46.583Z,13.05
2019-05-21T04:27:07.975Z,12.97
2019-05-21T04:31:28.744Z,12.74
2019-05-21T04:35:48.911Z,12.96
2019-05-21T04:40:09.398Z,12.96
2019-05-21T04:44:30.071Z,12.93
2019-05-21T04:48:50.884Z,13.10
2019-05-21T04:53:11.099Z,12.90
2019-05-21T04:57:31.610Z,13.16
2019-05-21T05:01:52.435Z,13.00
2019-05-21T05:06:12.893Z,13.19
2019-05-21T05:10:33.503Z,13.16
2019-05-21T05:14:54.044Z,13.05
2019-05-21T05:19:14.112Z,12.93
2019-05-21T05:23:34.218Z,12.95
2019-05-21T05:27:55.062Z,12.87
2019-05-21T05:32:15.321Z,13.03
2019-05-21T05:36:37.021Z,13.00
2019-05-21T05:40:57.886Z,13.13
2019-05-21T05:45:18.487Z,13.04
2019-05-21T05:49:39.285Z,12.98
2019-05-21T05:53:59.743Z,13.12
2019-05-21T05:58:20.655Z,12.88
2019-05-21T06:02:41.453Z,12.85
2019-05-21T06:07:02.309Z,13.19
2019-05-21T06:11:22.546Z,13.04
2019-05-21T06:15:43.070Z,13.01
2019-05-21T06:20:05.552Z,12.84
2019-05-21T06:24:26.482Z,12.98
2019-05-21T06:28:47.148Z,13.11
2019-05-21T06:33:08.485Z,13.10
2019-05-21T06:37:29.322Z,13.07
2019-05-21T06:41:49.662Z,13.09
2019-05-21T06:46:10.360Z,13.14
2019-05-21T06:50:30.958Z,13.04
2019-05-21T06:54:51.834Z,12.97
2019-05-21T06:59:12.484Z,13.06
2019-05-21T07:03:33.184Z,12.89
2019-05-21T07:07:56.991Z,13.26
2019-05-21T07:12:18.122Z,12.94
2019-05-21T07:16:38.445Z,13.38
2019-05-21T07:20:59.749Z,13.30
2019-05-21T07:25:25.283Z,13.13
2019-05-21T07:29:46.879Z,13.08
2019-05-21T07:34:07.420Z,13.22
2019-05-21T07:38:27.887Z,13.29
2019-05-21T07:42:48.935Z,13.24
2019-05-21T07:47:13.158Z,13.26
2019-05-21T07:51:33.881Z,13.23
2019-05-21T07:55:54.255Z,13.03
2019-05-21T08:00:17.189Z,12.92
2019-05-21T08:04:37.670Z,12.86
2019-05-21T08:09:12.334Z,12.65
2019-05-21T08:13:21.777Z,12.32
2019-05-21T08:17:42.635Z,12.47
2019-05-21T08:22:03.302Z,12.74
2019-05-21T08:26:23.831Z,12.71
2019-05-21T08:30:49.512Z,12.82
2019-05-21T08:35:10.408Z,12.71
2019-05-21T08:39:31.831Z,12.58
2019-05-21T08:48:30.824Z,12.51
2019-05-21T08:52:51.368Z,12.54
2019-05-21T08:57:22.001Z,12.94
2019-05-21T09:01:42.516Z,12.96
2019-05-21T09:06:24.369Z,12.88
2019-05-21T09:10:40.576Z,13.13
2019-05-21T09:15:01.421Z,13.23
2019-05-21T09:19:22.602Z,13.16
2019-05-21T09:23:43.545Z,12.94
2019-05-21T09:28:03.945Z,13.02
2019-05-21T09:32:27.328Z,13.39
2019-05-21T09:36:48.077Z,13.39
2019-05-21T09:41:08.547Z,13.21
2019-05-21T09:45:29.245Z,13.23
2019-05-21T09:49:50.928Z,13.33
2019-05-21T09:54:11.842Z,13.31
2019-05-21T09:58:32.516Z,13.53
2019-05-21T10:02:59.089Z,13.25
2019-05-21T10:07:37.639Z,13.40
2019-05-21T10:11:42.528Z,13.09
2019-05-21T10:16:05.780Z,13.27
2019-05-21T10:20:27.261Z,13.20
2019-05-21T10:24:48.453Z,13.15
2019-05-21T10:29:08.663Z,13.14
2019-05-21T10:33:30.246Z,13.19
2019-05-21T10:37:55.134Z,13.26
2019-05-21T10:42:13.841Z,13.10
2019-05-21T10:46:36.030Z,13.27
2019-05-21T10:50:56.552Z,13.22
2019-05-21T10:55:17.764Z,12.92
2019-05-21T10:59:38.534Z,13.23
2019-05-21T11:03:58.886Z,13.15
2019-05-21T11:08:24.375Z,13.34
2019-05-21T11:12:42.446Z,13.31
2019-05-21T11:17:02.776Z,13.27
2019-05-21T11:21:26.248Z,13.29
2019-05-21T11:25:55.815Z,13.18
2019-05-21T11:30:17.558Z,13.03
2019-05-21T11:34:38.297Z,13.06
2019-05-21T11:39:00.410Z,13.35
2019-05-21T11:43:22.149Z,13.10
2019-05-21T11:47:42.639Z,13.21
2019-05-21T11:52:06.070Z,13.35
2019-05-21T11:56:28.045Z,13.30
2019-05-21T12:00:49.489Z,13.36
2019-05-21T12:05:09.937Z,13.28
2019-05-21T12:09:31.343Z,13.55
2019-05-21T12:13:51.591Z,13.36
2019-05-21T12:18:12.378Z,13.36
2019-05-21T12:22:33.218Z,13.14
2019-05-21T12:26:53.541Z,13.48
2019-05-21T12:31:14.429Z,13.32
2019-05-21T12:35:35.251Z,13.44
2019-05-21T12:39:55.797Z,13.43
2019-05-21T12:44:16.186Z,13.34
2019-05-21T12:48:37.278Z,13.16
2019-05-21T12:52:57.631Z,13.31
2019-05-21T12:57:18.657Z,13.36
2019-05-21T13:01:38.972Z,13.32
2019-05-21T13:06:00.142Z,13.13
2019-05-21T13:10:20.372Z,13.30
2019-05-21T13:14:40.732Z,13.36
2019-05-21T13:19:01.501Z,13.37
2019-05-21T13:23:25.041Z,13.45
2019-05-21T13:27:57.450Z,13.40
2019-05-21T13:32:16.280Z,13.12
2019-05-21T13:36:36.379Z,13.21
2019-05-21T13:40:57.172Z,13.39
2019-05-21T13:45:18.728Z,13.32
2019-05-21T13:49:43.685Z,13.42
2019-05-21T13:54:04.703Z,13.65
2019-05-21T13:58:25.322Z,13.27
2019-05-21T14:02:47.022Z,13.45
2019-05-21T14:07:07.246Z,13.48
2019-05-21T14:11:31.435Z,13.23
2019-05-21T14:15:52.635Z,12.95
2019-05-21T14:20:14.467Z,13.03
2019-05-21T14:24:35.095Z,12.96
2019-05-21T14:28:56.274Z,12.99
2019-05-21T14:33:17.064Z,13.20
2019-05-21T14:37:39.202Z,13.07
2019-05-21T14:42:00.697Z,13.04
2019-05-21T14:46:28.511Z,13.25
2019-05-21T14:50:50.729Z,13.10
2019-05-21T14:55:11.958Z,13.02
2019-05-21T14:59:32.796Z,13.35
2019-05-21T15:03:53.713Z,13.24
2019-05-21T15:08:14.685Z,13.18
2019-05-21T15:12:35.584Z,13.34
2019-05-21T15:16:56.238Z,13.36
2019-05-21T15:21:21.246Z,13.32
2019-05-21T15:25:49.015Z,13.19
2019-05-21T15:30:19.254Z,13.28
2019-05-21T15:34:39.491Z,13.37
2019-05-21T15:39:00.059Z,13.09
2019-05-21T15:43:21.898Z,13.26
2019-05-21T15:47:42.667Z,13.15
2019-05-21T15:52:03.964Z,13.31
2019-05-21T15:56:24.208Z,13.47
2019-05-21T16:00:45.535Z,13.37
2019-05-21T16:05:07.152Z,13.28
2019-05-21T16:09:31.397Z,13.40
2019-05-21T16:13:52.561Z,13.28
2019-05-21T16:18:13.722Z,13.49
2019-05-21T16:22:37.189Z,13.16
2019-05-21T16:26:57.973Z,13.48
2019-05-21T16:31:18.767Z,13.31
2019-05-21T16:35:39.368Z,13.36
2019-05-21T16:40:01.474Z,13.22
2019-05-21T16:44:22.544Z,13.08
2019-05-21T16:48:43.465Z,13.18
2019-05-21T16:53:04.949Z,13.15
2019-05-21T16:57:25.345Z,13.04
2019-05-21T17:01:46.025Z,13.05
2019-05-21T17:06:07.011Z,13.07
2019-05-21T17:10:39.223Z,13.16
2019-05-21T17:14:59.558Z,13.29
2019-05-21T17:19:20.547Z,13.12
2019-05-21T17:23:41.154Z,13.02
2019-05-21T17:28:02.841Z,12.95
2019-05-21T17:32:24.055Z,13.25
2019-05-21T17:36:44.256Z,13.27
2019-05-21T17:41:08.153Z,13.20
2019-05-21T17:45:28.833Z,13.04
2019-05-21T17:49:54.651Z,13.36
2019-05-21T17:54:16.363Z,13.16
2019-05-21T17:58:43.220Z,12.89
2019-05-21T18:03:03.434Z,12.98
2019-05-21T18:07:24.151Z,13.21
2019-05-21T18:11:44.725Z,13.14
2019-05-21T18:16:05.528Z,13.23
2019-05-21T18:20:25.891Z,13.26
2019-05-21T18:24:48.863Z,13.12
2019-05-21T18:29:13.297Z,13.02
2019-05-21T18:33:36.628Z,13.14
2019-05-21T18:38:00.471Z,13.09
2019-05-21T18:42:22.865Z,13.05
2019-05-21T18:46:44.311Z,13.13
2019-05-21T18:51:05.128Z,12.89
2019-05-21T18:55:25.604Z,13.14
2019-05-21T18:59:46.715Z,13.21
2019-05-21T19:04:07.804Z,13.05
2019-05-21T19:08:28.392Z,13.05
2019-05-21T19:12:48.626Z,12.99
2019-05-21T19:17:09.571Z,13.20
2019-05-21T19:21:30.055Z,12.73
2019-05-21T19:25:50.873Z,12.82
2019-05-21T19:30:12.021Z,13.03
2019-05-21T19:34:32.641Z,13.20
2019-05-21T19:38:53.670Z,12.95
2019-05-21T19:43:14.499Z,13.18
2019-05-21T19:47:35.639Z,13.17
2019-05-21T19:51:56.411Z,13.20
2019-05-21T19:56:17.598Z,13.25
2019-05-21T20:00:38.379Z,13.15
2019-05-21T20:05:00.374Z,13.21
2019-05-21T20:09:22.339Z,13.35
2019-05-21T20:13:43.752Z,13.01
2019-05-21T20:18:07.667Z,13.09
2019-05-21T20:22:28.562Z,12.63
2019-05-21T20:26:49.615Z,12.57
2019-05-21T20:31:10.365Z,12.64
2019-05-21T20:35:33.446Z,12.74
2019-05-21T20:39:55.538Z,12.78
2019-05-21T20:44:16.218Z,12.75
2019-05-21T20:48:37.623Z,12.74
2019-05-21T20:52:59.557Z,12.68
2019-05-21T20:57:20.304Z,12.83
2019-05-21T21:01:40.808Z,12.57
2019-05-21T21:06:01.488Z,12.51
2019-05-21T21:10:22.438Z,12.81
2019-05-21T21:14:43.948Z,12.68
2019-05-21T21:19:04.924Z,13.00
2019-05-21T21:23:25.945Z,12.74
2019-05-21T21:27:46.652Z,12.41
2019-05-21T21:32:07.542Z,12.50
2019-05-21T21:36:28.105Z,12.27
2019-05-21T21:40:49.054Z,12.20
2019-05-21T21:45:10.694Z,12.11
2019-05-21T21:49:32.583Z,12.22
2019-05-21T21:53:52.883Z,12.44
2019-05-21T21:58:13.375Z,12.58
2019-05-21T22:02:35.501Z,12.63
2019-05-21T22:06:56.783Z,12.87
2019-05-21T22:11:18.688Z,12.54
2019-05-21T22:15:39.190Z,12.77
2019-05-21T22:20:00.275Z,12.71
2019-05-21T22:24:21.799Z,12.64
2019-05-21T22:28:42.335Z,12.58
2019-05-21T22:33:02.808Z,12.60
2019-05-21T22:37:24.634Z,12.43
2019-05-21T22:41:45.322Z,12.23
2019-05-21T22:46:06.153Z,12.39
2019-05-21T22:50:26.982Z,12.25
2019-05-21T22:54:47.922Z,12.24
2019-05-21T22:59:09.151Z,12.61
2019-05-21T23:03:30.178Z,12.31
2019-05-21T23:07:51.155Z,12.11
2019-05-21T23:12:11.517Z,12.19
2019-05-21T23:16:31.943Z,12.53
2019-05-21T23:20:55.003Z,12.46
2019-05-21T23:25:15.914Z,12.50
2019-05-21T23:29:36.339Z,12.43
2019-05-21T23:33:56.526Z,12.59
2019-05-21T23:38:18.303Z,12.39
2019-05-21T23:42:38.621Z,12.58
2019-05-21T23:46:58.968Z,12.34
2019-05-21T23:51:20.441Z,12.49
2019-05-21T23:55:40.670Z,12.22
